sensor_id;sensor_type;location;lat;lon;timestamp;temperature;humidity
26186;DHT22;20067;48.764;9.176;2023-09-19T00:01:13;18.50;91.30
26186;DHT22;20067;48.764;9.176;2023-09-19T00:03:40;18.50;91.30
26186;DHT22;20067;48.764;9.176;2023-09-19T00:06:08;18.50;91.30
26186;DHT22;20067;48.764;9.176;2023-09-19T00:08:36;18.50;91.30
26186;DHT22;20067;48.764;9.176;2023-09-19T00:11:02;18.40;91.30
26186;DHT22;20067;48.764;9.176;2023-09-19T00:13:29;18.40;91.30
26186;DHT22;20067;48.764;9.176;2023-09-19T00:15:56;18.40;91.30
26186;DHT22;20067;48.764;9.176;2023-09-19T00:18:24;18.40;91.30
26186;DHT22;20067;48.764;9.176;2023-09-19T00:20:57;18.40;91.30
26186;DHT22;20067;48.764;9.176;2023-09-19T00:23:23;18.40;91.30
26186;DHT22;20067;48.764;9.176;2023-09-19T00:25:50;18.30;91.30
26186;DHT22;20067;48.764;9.176;2023-09-19T00:28:17;18.20;91.30
26186;DHT22;20067;48.764;9.176;2023-09-19T00:30:44;18.30;91.30
26186;DHT22;20067;48.764;9.176;2023-09-19T00:33:10;18.30;91.30
26186;DHT22;20067;48.764;9.176;2023-09-19T00:35:37;18.20;91.30
26186;DHT22;20067;48.764;9.176;2023-09-19T00:38:03;18.30;91.30
26186;DHT22;20067;48.764;9.176;2023-09-19T00:40:29;18.30;91.30
26186;DHT22;20067;48.764;9.176;2023-09-19T00:42:58;18.40;91.30
26186;DHT22;20067;48.764;9.176;2023-09-19T00:45:26;18.40;91.30
26186;DHT22;20067;48.764;9.176;2023-09-19T00:47:52;18.30;91.30
26186;DHT22;20067;48.764;9.176;2023-09-19T00:50:20;18.40;91.30
26186;DHT22;20067;48.764;9.176;2023-09-19T00:52:48;18.40;91.30
26186;DHT22;20067;48.764;9.176;2023-09-19T00:55:16;18.30;91.30
26186;DHT22;20067;48.764;9.176;2023-09-19T00:57:44;18.30;91.30
26186;DHT22;20067;48.764;9.176;2023-09-19T01:00:10;18.30;91.30
26186;DHT22;20067;48.764;9.176;2023-09-19T01:02:43;18.30;91.30
26186;DHT22;20067;48.764;9.176;2023-09-19T01:05:10;18.30;91.30
26186;DHT22;20067;48.764;9.176;2023-09-19T01:07:36;18.20;91.30
26186;DHT22;20067;48.764;9.176;2023-09-19T01:10:10;18.20;91.30
26186;DHT22;20067;48.764;9.176;2023-09-19T01:18:21;18.20;91.30
26186;DHT22;20067;48.764;9.176;2023-09-19T01:29:38;18.20;91.30
26186;DHT22;20067;48.764;9.176;2023-09-19T01:32:06;18.20;91.30
26186;DHT22;20067;48.764;9.176;2023-09-19T01:37:18;18.40;91.30
26186;DHT22;20067;48.764;9.176;2023-09-19T01:40:02;18.50;91.30
26186;DHT22;20067;48.764;9.176;2023-09-19T01:48:12;18.40;91.30
26186;DHT22;20067;48.764;9.176;2023-09-19T01:51:01;18.40;91.30
26186;DHT22;20067;48.764;9.176;2023-09-19T01:53:46;18.40;91.30
26186;DHT22;20067;48.764;9.176;2023-09-19T01:56:24;18.50;91.30
26186;DHT22;20067;48.764;9.176;2023-09-19T01:58:54;18.50;91.30
26186;DHT22;20067;48.764;9.176;2023-09-19T02:01:22;18.50;91.30
26186;DHT22;20067;48.764;9.176;2023-09-19T02:03:50;18.50;91.30
26186;DHT22;20067;48.764;9.176;2023-09-19T02:06:16;18.50;91.30
26186;DHT22;20067;48.764;9.176;2023-09-19T02:08:43;18.50;91.30
26186;DHT22;20067;48.764;9.176;2023-09-19T02:11:10;18.50;91.30
26186;DHT22;20067;48.764;9.176;2023-09-19T02:13:36;18.50;91.30
26186;DHT22;20067;48.764;9.176;2023-09-19T02:16:03;18.50;91.30
26186;DHT22;20067;48.764;9.176;2023-09-19T02:18:30;18.50;91.30
26186;DHT22;20067;48.764;9.176;2023-09-19T02:20:56;18.50;91.30
26186;DHT22;20067;48.764;9.176;2023-09-19T02:23:24;18.50;91.30
26186;DHT22;20067;48.764;9.176;2023-09-19T02:25:56;18.40;91.30
26186;DHT22;20067;48.764;9.176;2023-09-19T02:28:31;18.40;91.30
26186;DHT22;20067;48.764;9.176;2023-09-19T02:30:58;18.30;91.30
26186;DHT22;20067;48.764;9.176;2023-09-19T02:33:23;18.30;91.30
26186;DHT22;20067;48.764;9.176;2023-09-19T02:35:49;18.40;91.30
26186;DHT22;20067;48.764;9.176;2023-09-19T02:38:16;18.40;91.30
26186;DHT22;20067;48.764;9.176;2023-09-19T02:40:46;18.40;91.30
26186;DHT22;20067;48.764;9.176;2023-09-19T02:43:11;18.30;91.30
26186;DHT22;20067;48.764;9.176;2023-09-19T02:45:37;18.20;91.30
26186;DHT22;20067;48.764;9.176;2023-09-19T02:48:03;18.10;91.30
26186;DHT22;20067;48.764;9.176;2023-09-19T02:50:30;18.10;91.30
26186;DHT22;20067;48.764;9.176;2023-09-19T02:52:55;18.10;91.30
26186;DHT22;20067;48.764;9.176;2023-09-19T02:55:21;18.10;91.30
26186;DHT22;20067;48.764;9.176;2023-09-19T02:57:52;18.10;91.30
26186;DHT22;20067;48.764;9.176;2023-09-19T03:00:19;18.10;91.30
26186;DHT22;20067;48.764;9.176;2023-09-19T03:02:52;18.10;91.30
26186;DHT22;20067;48.764;9.176;2023-09-19T03:05:19;18.10;91.30
26186;DHT22;20067;48.764;9.176;2023-09-19T03:07:47;18.20;91.30
26186;DHT22;20067;48.764;9.176;2023-09-19T03:10:19;18.20;91.30
26186;DHT22;20067;48.764;9.176;2023-09-19T03:12:46;18.20;91.30
26186;DHT22;20067;48.764;9.176;2023-09-19T03:15:13;18.20;91.30
26186;DHT22;20067;48.764;9.176;2023-09-19T03:17:43;18.10;91.30
26186;DHT22;20067;48.764;9.176;2023-09-19T03:20:09;18.30;91.30
26186;DHT22;20067;48.764;9.176;2023-09-19T03:22:37;18.20;91.30
26186;DHT22;20067;48.764;9.176;2023-09-19T03:25:03;18.10;91.30
26186;DHT22;20067;48.764;9.176;2023-09-19T03:27:34;18.10;91.30
26186;DHT22;20067;48.764;9.176;2023-09-19T03:29:59;18.10;91.30
26186;DHT22;20067;48.764;9.176;2023-09-19T03:32:25;18.20;91.30
26186;DHT22;20067;48.764;9.176;2023-09-19T03:34:51;18.20;91.30
26186;DHT22;20067;48.764;9.176;2023-09-19T03:37:16;18.30;91.30
26186;DHT22;20067;48.764;9.176;2023-09-19T03:39:42;18.30;91.30
26186;DHT22;20067;48.764;9.176;2023-09-19T03:42:08;18.30;91.30
26186;DHT22;20067;48.764;9.176;2023-09-19T03:44:34;18.30;91.30
26186;DHT22;20067;48.764;9.176;2023-09-19T03:46:59;18.20;91.30
26186;DHT22;20067;48.764;9.176;2023-09-19T03:49:25;18.20;91.30
26186;DHT22;20067;48.764;9.176;2023-09-19T03:51:50;18.20;91.30
26186;DHT22;20067;48.764;9.176;2023-09-19T03:54:16;18.20;91.30
26186;DHT22;20067;48.764;9.176;2023-09-19T03:56:43;18.20;91.30
26186;DHT22;20067;48.764;9.176;2023-09-19T03:59:09;18.20;91.30
26186;DHT22;20067;48.764;9.176;2023-09-19T04:01:35;18.30;91.30
26186;DHT22;20067;48.764;9.176;2023-09-19T04:04:00;18.30;91.30
26186;DHT22;20067;48.764;9.176;2023-09-19T04:06:34;18.40;91.30
26186;DHT22;20067;48.764;9.176;2023-09-19T04:09:01;18.30;91.30
26186;DHT22;20067;48.764;9.176;2023-09-19T04:11:27;18.30;91.30
26186;DHT22;20067;48.764;9.176;2023-09-19T04:13:52;18.20;91.30
26186;DHT22;20067;48.764;9.176;2023-09-19T04:16:19;18.30;91.30
26186;DHT22;20067;48.764;9.176;2023-09-19T04:18:45;18.30;91.30
26186;DHT22;20067;48.764;9.176;2023-09-19T04:21:10;18.30;91.30
26186;DHT22;20067;48.764;9.176;2023-09-19T04:23:36;18.30;91.30
26186;DHT22;20067;48.764;9.176;2023-09-19T04:26:02;18.20;91.30
26186;DHT22;20067;48.764;9.176;2023-09-19T04:28:30;18.20;91.30
26186;DHT22;20067;48.764;9.176;2023-09-19T04:30:56;18.20;91.30
26186;DHT22;20067;48.764;9.176;2023-09-19T04:33:23;18.20;91.30
26186;DHT22;20067;48.764;9.176;2023-09-19T04:35:49;18.40;91.30
26186;DHT22;20067;48.764;9.176;2023-09-19T04:38:17;18.30;91.30
26186;DHT22;20067;48.764;9.176;2023-09-19T04:40:42;18.40;91.30
26186;DHT22;20067;48.764;9.176;2023-09-19T04:43:09;18.30;91.30
26186;DHT22;20067;48.764;9.176;2023-09-19T04:45:34;18.20;91.30
26186;DHT22;20067;48.764;9.176;2023-09-19T04:48:01;18.10;91.30
26186;DHT22;20067;48.764;9.176;2023-09-19T04:50:28;18.10;91.30
26186;DHT22;20067;48.764;9.176;2023-09-19T04:52:54;18.10;91.30
26186;DHT22;20067;48.764;9.176;2023-09-19T04:55:19;18.00;91.30
26186;DHT22;20067;48.764;9.176;2023-09-19T04:57:50;18.00;91.30
26186;DHT22;20067;48.764;9.176;2023-09-19T05:00:17;18.00;91.30
26186;DHT22;20067;48.764;9.176;2023-09-19T05:02:52;18.10;91.30
26186;DHT22;20067;48.764;9.176;2023-09-19T05:05:19;18.00;91.30
26186;DHT22;20067;48.764;9.176;2023-09-19T05:07:45;18.00;91.30
26186;DHT22;20067;48.764;9.176;2023-09-19T05:10:11;17.90;91.30
26186;DHT22;20067;48.764;9.176;2023-09-19T05:12:38;17.90;91.30
26186;DHT22;20067;48.764;9.176;2023-09-19T05:15:04;17.90;91.30
26186;DHT22;20067;48.764;9.176;2023-09-19T05:17:33;17.80;91.30
26186;DHT22;20067;48.764;9.176;2023-09-19T05:19:59;17.70;91.30
26186;DHT22;20067;48.764;9.176;2023-09-19T05:22:37;17.70;91.30
26186;DHT22;20067;48.764;9.176;2023-09-19T05:25:05;17.50;91.30
26186;DHT22;20067;48.764;9.176;2023-09-19T05:27:32;17.50;91.30
26186;DHT22;20067;48.764;9.176;2023-09-19T05:29:59;17.50;91.30
26186;DHT22;20067;48.764;9.176;2023-09-19T05:32:25;17.60;91.30
26186;DHT22;20067;48.764;9.176;2023-09-19T05:34:50;17.70;91.30
26186;DHT22;20067;48.764;9.176;2023-09-19T05:37:21;17.70;91.30
26186;DHT22;20067;48.764;9.176;2023-09-19T05:39:48;17.70;91.30
26186;DHT22;20067;48.764;9.176;2023-09-19T05:42:14;17.90;91.30
26186;DHT22;20067;48.764;9.176;2023-09-19T05:44:40;17.80;91.30
26186;DHT22;20067;48.764;9.176;2023-09-19T05:47:05;17.80;91.30
26186;DHT22;20067;48.764;9.176;2023-09-19T05:49:35;17.70;91.30
26186;DHT22;20067;48.764;9.176;2023-09-19T05:52:06;17.60;91.30
26186;DHT22;20067;48.764;9.176;2023-09-19T05:54:32;17.30;91.30
26186;DHT22;20067;48.764;9.176;2023-09-19T05:57:00;17.40;91.30
26186;DHT22;20067;48.764;9.176;2023-09-19T05:59:25;17.30;91.30
26186;DHT22;20067;48.764;9.176;2023-09-19T06:01:52;17.40;91.30
26186;DHT22;20067;48.764;9.176;2023-09-19T06:04:19;17.40;91.30
26186;DHT22;20067;48.764;9.176;2023-09-19T06:06:45;17.40;91.30
26186;DHT22;20067;48.764;9.176;2023-09-19T06:09:14;17.50;91.30
26186;DHT22;20067;48.764;9.176;2023-09-19T06:11:41;17.50;91.30
26186;DHT22;20067;48.764;9.176;2023-09-19T06:14:07;17.80;91.30
26186;DHT22;20067;48.764;9.176;2023-09-19T06:16:33;18.00;91.30
26186;DHT22;20067;48.764;9.176;2023-09-19T06:18:58;18.00;91.30
26186;DHT22;20067;48.764;9.176;2023-09-19T06:21:26;17.60;91.30
26186;DHT22;20067;48.764;9.176;2023-09-19T06:23:53;17.70;91.30
26186;DHT22;20067;48.764;9.176;2023-09-19T06:26:18;17.70;91.30
26186;DHT22;20067;48.764;9.176;2023-09-19T06:28:44;17.80;91.30
26186;DHT22;20067;48.764;9.176;2023-09-19T06:31:10;18.00;91.30
26186;DHT22;20067;48.764;9.176;2023-09-19T06:33:37;17.90;91.30
26186;DHT22;20067;48.764;9.176;2023-09-19T06:36:06;17.80;91.30
26186;DHT22;20067;48.764;9.176;2023-09-19T06:38:32;17.90;91.30
26186;DHT22;20067;48.764;9.176;2023-09-19T06:41:01;18.00;91.30
26186;DHT22;20067;48.764;9.176;2023-09-19T06:43:31;18.00;91.30
26186;DHT22;20067;48.764;9.176;2023-09-19T06:45:58;18.10;91.30
26186;DHT22;20067;48.764;9.176;2023-09-19T06:48:24;18.10;91.30
26186;DHT22;20067;48.764;9.176;2023-09-19T06:50:50;17.90;91.30
26186;DHT22;20067;48.764;9.176;2023-09-19T06:53:16;17.90;91.30
26186;DHT22;20067;48.764;9.176;2023-09-19T06:55:43;18.00;91.30
26186;DHT22;20067;48.764;9.176;2023-09-19T06:58:09;18.00;91.30
26186;DHT22;20067;48.764;9.176;2023-09-19T07:00:36;18.20;91.30
26186;DHT22;20067;48.764;9.176;2023-09-19T07:03:03;18.30;91.30
26186;DHT22;20067;48.764;9.176;2023-09-19T07:05:34;18.40;91.30
26186;DHT22;20067;48.764;9.176;2023-09-19T07:08:04;18.70;91.30
26186;DHT22;20067;48.764;9.176;2023-09-19T07:10:32;18.90;91.30
26186;DHT22;20067;48.764;9.176;2023-09-19T07:13:05;18.90;91.30
26186;DHT22;20067;48.764;9.176;2023-09-19T07:15:37;19.00;91.30
26186;DHT22;20067;48.764;9.176;2023-09-19T07:18:05;19.10;91.30
26186;DHT22;20067;48.764;9.176;2023-09-19T07:20:31;19.10;91.30
26186;DHT22;20067;48.764;9.176;2023-09-19T07:23:00;19.00;91.30
26186;DHT22;20067;48.764;9.176;2023-09-19T07:25:27;18.90;91.30
26186;DHT22;20067;48.764;9.176;2023-09-19T07:27:55;18.90;91.30
26186;DHT22;20067;48.764;9.176;2023-09-19T07:30:21;18.80;91.30
26186;DHT22;20067;48.764;9.176;2023-09-19T07:32:47;18.90;91.30
26186;DHT22;20067;48.764;9.176;2023-09-19T07:35:13;18.90;91.30
26186;DHT22;20067;48.764;9.176;2023-09-19T07:37:41;19.00;91.30
26186;DHT22;20067;48.764;9.176;2023-09-19T07:40:07;19.10;91.30
26186;DHT22;20067;48.764;9.176;2023-09-19T07:42:39;19.10;91.30
26186;DHT22;20067;48.764;9.176;2023-09-19T07:45:07;19.10;91.30
26186;DHT22;20067;48.764;9.176;2023-09-19T07:47:34;19.20;91.30
26186;DHT22;20067;48.764;9.176;2023-09-19T07:50:01;19.20;91.30
26186;DHT22;20067;48.764;9.176;2023-09-19T07:52:29;19.30;91.30
26186;DHT22;20067;48.764;9.176;2023-09-19T07:54:55;19.40;91.30
26186;DHT22;20067;48.764;9.176;2023-09-19T07:57:22;19.50;91.30
26186;DHT22;20067;48.764;9.176;2023-09-19T07:59:49;19.70;91.30
26186;DHT22;20067;48.764;9.176;2023-09-19T08:02:14;19.70;91.30
26186;DHT22;20067;48.764;9.176;2023-09-19T08:04:47;19.90;91.30
26186;DHT22;20067;48.764;9.176;2023-09-19T08:07:13;20.10;91.30
26186;DHT22;20067;48.764;9.176;2023-09-19T08:09:39;20.30;91.30
26186;DHT22;20067;48.764;9.176;2023-09-19T08:12:06;20.50;91.30
26186;DHT22;20067;48.764;9.176;2023-09-19T08:14:36;20.60;91.30
26186;DHT22;20067;48.764;9.176;2023-09-19T08:17:03;21.00;91.20
26186;DHT22;20067;48.764;9.176;2023-09-19T08:19:32;21.40;91.30
26186;DHT22;20067;48.764;9.176;2023-09-19T08:22:00;21.90;89.10
26186;DHT22;20067;48.764;9.176;2023-09-19T08:24:30;21.70;87.70
26186;DHT22;20067;48.764;9.176;2023-09-19T08:26:58;21.60;88.80
26186;DHT22;20067;48.764;9.176;2023-09-19T08:29:24;21.70;88.60
26186;DHT22;20067;48.764;9.176;2023-09-19T08:31:57;21.90;89.70
26186;DHT22;20067;48.764;9.176;2023-09-19T08:34:24;22.20;89.20
26186;DHT22;20067;48.764;9.176;2023-09-19T08:36:56;22.40;88.50
26186;DHT22;20067;48.764;9.176;2023-09-19T08:39:23;23.00;87.20
26186;DHT22;20067;48.764;9.176;2023-09-19T08:41:49;23.10;85.20
26186;DHT22;20067;48.764;9.176;2023-09-19T08:44:20;23.50;84.30
26186;DHT22;20067;48.764;9.176;2023-09-19T08:46:50;23.10;84.80
26186;DHT22;20067;48.764;9.176;2023-09-19T08:49:26;23.10;84.30
26186;DHT22;20067;48.764;9.176;2023-09-19T08:52:01;22.70;85.00
26186;DHT22;20067;48.764;9.176;2023-09-19T08:54:35;22.70;85.70
26186;DHT22;20067;48.764;9.176;2023-09-19T08:57:07;22.60;85.30
26186;DHT22;20067;48.764;9.176;2023-09-19T08:59:38;22.90;85.70
26186;DHT22;20067;48.764;9.176;2023-09-19T09:02:12;22.80;85.90
26186;DHT22;20067;48.764;9.176;2023-09-19T09:05:00;22.50;86.50
26186;DHT22;20067;48.764;9.176;2023-09-19T09:07:27;22.90;83.40
26186;DHT22;20067;48.764;9.176;2023-09-19T09:09:58;23.30;81.90
26186;DHT22;20067;48.764;9.176;2023-09-19T09:12:24;24.10;80.30
26186;DHT22;20067;48.764;9.176;2023-09-19T09:14:51;23.70;79.10
26186;DHT22;20067;48.764;9.176;2023-09-19T09:17:17;23.20;81.30
26186;DHT22;20067;48.764;9.176;2023-09-19T09:19:48;23.60;81.00
26186;DHT22;20067;48.764;9.176;2023-09-19T09:22:14;23.80;78.60
26186;DHT22;20067;48.764;9.176;2023-09-19T09:27:41;23.20;79.70
26186;DHT22;20067;48.764;9.176;2023-09-19T09:30:08;23.00;78.80
26186;DHT22;20067;48.764;9.176;2023-09-19T09:32:34;22.90;81.40
26186;DHT22;20067;48.764;9.176;2023-09-19T09:35:07;22.70;79.80
26186;DHT22;20067;48.764;9.176;2023-09-19T09:37:43;22.70;80.90
26186;DHT22;20067;48.764;9.176;2023-09-19T09:40:10;22.50;79.50
26186;DHT22;20067;48.764;9.176;2023-09-19T09:42:41;22.90;78.40
26186;DHT22;20067;48.764;9.176;2023-09-19T09:45:22;22.80;79.60
26186;DHT22;20067;48.764;9.176;2023-09-19T09:48:01;23.60;76.80
26186;DHT22;20067;48.764;9.176;2023-09-19T09:50:46;23.70;76.30
26186;DHT22;20067;48.764;9.176;2023-09-19T09:53:31;23.70;75.00
26186;DHT22;20067;48.764;9.176;2023-09-19T09:56:00;23.70;74.20
26186;DHT22;20067;48.764;9.176;2023-09-19T09:58:28;24.10;75.20
26186;DHT22;20067;48.764;9.176;2023-09-19T10:01:04;23.40;73.60
26186;DHT22;20067;48.764;9.176;2023-09-19T10:03:57;22.90;74.90
26186;DHT22;20067;48.764;9.176;2023-09-19T10:06:23;22.90;76.40
26186;DHT22;20067;48.764;9.176;2023-09-19T10:09:06;23.00;75.00
26186;DHT22;20067;48.764;9.176;2023-09-19T10:12:03;23.00;74.50
26186;DHT22;20067;48.764;9.176;2023-09-19T10:14:34;23.20;75.80
26186;DHT22;20067;48.764;9.176;2023-09-19T10:17:04;23.90;73.20
26186;DHT22;20067;48.764;9.176;2023-09-19T10:22:35;23.10;74.30
26186;DHT22;20067;48.764;9.176;2023-09-19T10:25:04;22.60;74.90
26186;DHT22;20067;48.764;9.176;2023-09-19T10:27:33;22.40;76.20
26186;DHT22;20067;48.764;9.176;2023-09-19T10:30:05;22.40;76.90
26186;DHT22;20067;48.764;9.176;2023-09-19T10:32:34;22.40;76.80
26186;DHT22;20067;48.764;9.176;2023-09-19T10:35:02;22.40;76.80
26186;DHT22;20067;48.764;9.176;2023-09-19T10:37:34;22.30;76.90
26186;DHT22;20067;48.764;9.176;2023-09-19T10:40:06;22.00;76.90
26186;DHT22;20067;48.764;9.176;2023-09-19T10:42:37;22.20;76.10
26186;DHT22;20067;48.764;9.176;2023-09-19T10:45:04;23.00;74.80
26186;DHT22;20067;48.764;9.176;2023-09-19T10:47:39;23.70;73.30
26186;DHT22;20067;48.764;9.176;2023-09-19T10:50:06;24.00;71.80
26186;DHT22;20067;48.764;9.176;2023-09-19T10:52:40;23.40;73.10
26186;DHT22;20067;48.764;9.176;2023-09-19T10:55:08;23.40;73.30
26186;DHT22;20067;48.764;9.176;2023-09-19T10:57:36;23.60;72.30
26186;DHT22;20067;48.764;9.176;2023-09-19T11:00:04;23.10;72.90
26186;DHT22;20067;48.764;9.176;2023-09-19T11:05:38;24.60;70.90
26186;DHT22;20067;48.764;9.176;2023-09-19T11:08:07;25.90;68.30
26186;DHT22;20067;48.764;9.176;2023-09-19T11:10:50;25.30;69.00
26186;DHT22;20067;48.764;9.176;2023-09-19T11:13:30;24.90;68.90
26186;DHT22;20067;48.764;9.176;2023-09-19T11:16:04;24.60;70.40
26186;DHT22;20067;48.764;9.176;2023-09-19T11:24:29;25.20;68.90
26186;DHT22;20067;48.764;9.176;2023-09-19T11:27:10;26.90;65.80
26186;DHT22;20067;48.764;9.176;2023-09-19T11:29:40;28.00;62.80
26186;DHT22;20067;48.764;9.176;2023-09-19T11:32:06;26.60;65.00
26186;DHT22;20067;48.764;9.176;2023-09-19T11:34:45;25.30;66.90
26186;DHT22;20067;48.764;9.176;2023-09-19T11:40:05;24.60;67.10
26186;DHT22;20067;48.764;9.176;2023-09-19T11:42:47;24.80;66.10
26186;DHT22;20067;48.764;9.176;2023-09-19T11:48:15;24.30;69.10
26186;DHT22;20067;48.764;9.176;2023-09-19T11:50:43;24.70;67.20
26186;DHT22;20067;48.764;9.176;2023-09-19T11:53:13;25.40;65.00
26186;DHT22;20067;48.764;9.176;2023-09-19T11:55:42;25.90;65.80
26186;DHT22;20067;48.764;9.176;2023-09-19T11:58:13;26.70;64.60
26186;DHT22;20067;48.764;9.176;2023-09-19T12:00:44;28.00;60.70
26186;DHT22;20067;48.764;9.176;2023-09-19T12:03:11;26.40;62.70
26186;DHT22;20067;48.764;9.176;2023-09-19T12:05:39;26.30;64.30
26186;DHT22;20067;48.764;9.176;2023-09-19T12:08:07;27.40;62.80
26186;DHT22;20067;48.764;9.176;2023-09-19T12:10:50;27.90;60.90
26186;DHT22;20067;48.764;9.176;2023-09-19T12:13:19;28.50;59.90
26186;DHT22;20067;48.764;9.176;2023-09-19T12:15:46;28.80;58.80
26186;DHT22;20067;48.764;9.176;2023-09-19T12:18:29;28.80;59.50
26186;DHT22;20067;48.764;9.176;2023-09-19T12:20:55;29.60;57.70
26186;DHT22;20067;48.764;9.176;2023-09-19T12:23:24;29.20;57.80
26186;DHT22;20067;48.764;9.176;2023-09-19T12:25:51;29.70;58.20
26186;DHT22;20067;48.764;9.176;2023-09-19T12:28:20;30.90;55.90
26186;DHT22;20067;48.764;9.176;2023-09-19T12:30:49;33.00;53.50
26186;DHT22;20067;48.764;9.176;2023-09-19T12:33:18;30.70;54.70
26186;DHT22;20067;48.764;9.176;2023-09-19T12:35:47;29.90;56.40
26186;DHT22;20067;48.764;9.176;2023-09-19T12:38:43;30.40;56.30
26186;DHT22;20067;48.764;9.176;2023-09-19T12:41:13;30.00;56.20
26186;DHT22;20067;48.764;9.176;2023-09-19T12:43:40;28.50;59.70
26186;DHT22;20067;48.764;9.176;2023-09-19T12:46:07;29.00;59.20
26186;DHT22;20067;48.764;9.176;2023-09-19T12:48:36;29.60;57.70
26186;DHT22;20067;48.764;9.176;2023-09-19T12:51:12;29.40;58.30
26186;DHT22;20067;48.764;9.176;2023-09-19T12:53:45;28.90;58.70
26186;DHT22;20067;48.764;9.176;2023-09-19T12:56:17;28.70;58.80
26186;DHT22;20067;48.764;9.176;2023-09-19T13:01:16;27.80;60.40
26186;DHT22;20067;48.764;9.176;2023-09-19T13:03:42;29.10;58.40
26186;DHT22;20067;48.764;9.176;2023-09-19T13:06:07;30.10;57.10
26186;DHT22;20067;48.764;9.176;2023-09-19T13:08:38;29.80;57.20
26186;DHT22;20067;48.764;9.176;2023-09-19T13:11:11;28.60;58.50
26186;DHT22;20067;48.764;9.176;2023-09-19T13:16:33;29.20;58.50
26186;DHT22;20067;48.764;9.176;2023-09-19T13:18:59;28.70;59.10
26186;DHT22;20067;48.764;9.176;2023-09-19T13:21:32;28.40;59.30
26186;DHT22;20067;48.764;9.176;2023-09-19T13:24:21;27.90;60.90
26186;DHT22;20067;48.764;9.176;2023-09-19T13:26:48;29.50;58.40
26186;DHT22;20067;48.764;9.176;2023-09-19T13:29:15;29.70;58.00
26186;DHT22;20067;48.764;9.176;2023-09-19T13:31:48;31.10;54.30
26186;DHT22;20067;48.764;9.176;2023-09-19T13:34:15;31.00;54.40
26186;DHT22;20067;48.764;9.176;2023-09-19T13:36:43;29.70;56.40
26186;DHT22;20067;48.764;9.176;2023-09-19T13:39:09;26.70;61.60
26186;DHT22;20067;48.764;9.176;2023-09-19T13:41:38;26.20;64.00
26186;DHT22;20067;48.764;9.176;2023-09-19T13:44:03;27.50;60.30
26186;DHT22;20067;48.764;9.176;2023-09-19T13:46:30;28.70;59.70
26186;DHT22;20067;48.764;9.176;2023-09-19T13:49:00;29.50;58.30
26186;DHT22;20067;48.764;9.176;2023-09-19T13:51:29;30.40;56.50
26186;DHT22;20067;48.764;9.176;2023-09-19T13:53:55;29.90;57.30
26186;DHT22;20067;48.764;9.176;2023-09-19T13:56:21;28.50;57.40
26186;DHT22;20067;48.764;9.176;2023-09-19T13:58:47;27.80;59.10
26186;DHT22;20067;48.764;9.176;2023-09-19T14:01:13;27.70;60.70
26186;DHT22;20067;48.764;9.176;2023-09-19T14:03:40;29.70;57.10
26186;DHT22;20067;48.764;9.176;2023-09-19T14:06:06;29.10;57.60
26186;DHT22;20067;48.764;9.176;2023-09-19T14:08:32;28.40;58.60
26186;DHT22;20067;48.764;9.176;2023-09-19T14:11:05;29.40;57.40
26186;DHT22;20067;48.764;9.176;2023-09-19T14:13:33;30.30;56.60
26186;DHT22;20067;48.764;9.176;2023-09-19T14:16:06;31.30;53.80
26186;DHT22;20067;48.764;9.176;2023-09-19T14:18:33;32.30;52.40
26186;DHT22;20067;48.764;9.176;2023-09-19T14:21:06;31.20;54.50
26186;DHT22;20067;48.764;9.176;2023-09-19T14:23:56;30.10;55.30
26186;DHT22;20067;48.764;9.176;2023-09-19T14:26:22;28.40;56.10
26186;DHT22;20067;48.764;9.176;2023-09-19T14:28:51;28.00;57.80
26186;DHT22;20067;48.764;9.176;2023-09-19T14:31:17;28.10;56.80
26186;DHT22;20067;48.764;9.176;2023-09-19T14:33:43;26.80;58.30
26186;DHT22;20067;48.764;9.176;2023-09-19T14:36:09;26.50;60.50
26186;DHT22;20067;48.764;9.176;2023-09-19T14:38:37;25.70;62.40
26186;DHT22;20067;48.764;9.176;2023-09-19T14:41:04;25.60;62.20
26186;DHT22;20067;48.764;9.176;2023-09-19T14:43:32;26.30;61.20
26186;DHT22;20067;48.764;9.176;2023-09-19T14:46:08;27.40;59.00
26186;DHT22;20067;48.764;9.176;2023-09-19T14:48:35;27.30;59.00
26186;DHT22;20067;48.764;9.176;2023-09-19T14:51:04;26.60;60.10
26186;DHT22;20067;48.764;9.176;2023-09-19T14:53:31;26.60;61.20
26186;DHT22;20067;48.764;9.176;2023-09-19T14:55:59;27.60;58.80
26186;DHT22;20067;48.764;9.176;2023-09-19T14:58:25;28.50;57.20
26186;DHT22;20067;48.764;9.176;2023-09-19T15:00:51;28.50;56.30
26186;DHT22;20067;48.764;9.176;2023-09-19T15:03:17;28.00;57.50
26186;DHT22;20067;48.764;9.176;2023-09-19T15:05:43;28.20;56.90
26186;DHT22;20067;48.764;9.176;2023-09-19T15:08:09;26.80;59.00
26186;DHT22;20067;48.764;9.176;2023-09-19T15:10:34;25.40;61.80
26186;DHT22;20067;48.764;9.176;2023-09-19T15:13:00;25.20;62.70
26186;DHT22;20067;48.764;9.176;2023-09-19T15:15:26;25.90;62.40
26186;DHT22;20067;48.764;9.176;2023-09-19T15:17:51;26.40;60.80
26186;DHT22;20067;48.764;9.176;2023-09-19T15:20:17;25.90;61.90
26186;DHT22;20067;48.764;9.176;2023-09-19T15:22:43;26.50;60.60
26186;DHT22;20067;48.764;9.176;2023-09-19T15:25:09;26.90;60.30
26186;DHT22;20067;48.764;9.176;2023-09-19T15:27:35;27.00;59.90
26186;DHT22;20067;48.764;9.176;2023-09-19T15:30:02;26.70;60.70
26186;DHT22;20067;48.764;9.176;2023-09-19T15:32:28;26.50;60.80
26186;DHT22;20067;48.764;9.176;2023-09-19T15:34:54;26.40;60.90
26186;DHT22;20067;48.764;9.176;2023-09-19T15:37:20;26.50;61.00
26186;DHT22;20067;48.764;9.176;2023-09-19T15:39:47;26.10;61.60
26186;DHT22;20067;48.764;9.176;2023-09-19T15:42:13;25.90;62.00
26186;DHT22;20067;48.764;9.176;2023-09-19T15:44:42;25.90;62.20
26186;DHT22;20067;48.764;9.176;2023-09-19T15:47:09;25.60;62.20
26186;DHT22;20067;48.764;9.176;2023-09-19T15:49:35;25.00;63.30
26186;DHT22;20067;48.764;9.176;2023-09-19T15:52:00;24.60;64.70
26186;DHT22;20067;48.764;9.176;2023-09-19T15:54:26;24.60;64.60
26186;DHT22;20067;48.764;9.176;2023-09-19T15:56:53;24.40;64.50
26186;DHT22;20067;48.764;9.176;2023-09-19T15:59:20;24.30;65.50
26186;DHT22;20067;48.764;9.176;2023-09-19T16:01:46;24.50;65.70
26186;DHT22;20067;48.764;9.176;2023-09-19T16:04:12;24.50;65.50
26186;DHT22;20067;48.764;9.176;2023-09-19T16:06:38;24.70;65.70
26186;DHT22;20067;48.764;9.176;2023-09-19T16:09:05;24.80;65.70
26186;DHT22;20067;48.764;9.176;2023-09-19T16:11:35;24.80;65.10
26186;DHT22;20067;48.764;9.176;2023-09-19T16:14:01;25.00;64.80
26186;DHT22;20067;48.764;9.176;2023-09-19T16:16:28;24.80;64.90
26186;DHT22;20067;48.764;9.176;2023-09-19T16:19:00;24.70;64.90
26186;DHT22;20067;48.764;9.176;2023-09-19T16:21:28;24.50;65.50
26186;DHT22;20067;48.764;9.176;2023-09-19T16:23:56;24.10;66.10
26186;DHT22;20067;48.764;9.176;2023-09-19T16:26:23;24.10;66.60
26186;DHT22;20067;48.764;9.176;2023-09-19T16:28:51;24.00;67.40